Valois, New York
Current Conditions -  °F | °C
As of 7:14 PM on Wednesday 26 Nov 2014 (Local Time) from KPEO Reporting Station
Light Snow Light Snow  
Wind Chill: 25°   Ceiling: 600
Heat Index: 30°   Visibility: 3mi
Dew Point: 28°   Wind: 5mph
Humidity: 92%   Direction: NA
Pressure: 30.03"   Gusts: NA
Location:  42.4947°N, 76.8774°W
Report Text: KPEO 270014Z AUTO VRB04KT 3SM -SN BR BKN006 OVC011 M01/M02 A3003 RMK AO2 CIG 004V010 P0000 T10111022
Loading
Personal Weather Stations






























Interactive Weather Map New forecast layout! Learn more

10-Day Weather Forecast

Advertisements
Track Severe Weather on mobile